createdAt,value
2019-05-03T00:00:25.677Z,9.02
2019-05-03T00:01:25.657Z,9.04
2019-05-03T00:02:25.646Z,9.02
2019-05-03T00:03:25.647Z,9.04
2019-05-03T00:04:25.617Z,9.04
2019-05-03T00:05:25.616Z,9.05
2019-05-03T00:06:25.597Z,9.05
2019-05-03T00:07:25.637Z,9.04
2019-05-03T00:08:25.576Z,9.01
2019-05-03T00:09:25.566Z,8.99
2019-05-03T00:10:25.556Z,8.97
2019-05-03T00:11:25.546Z,8.97
2019-05-03T00:12:25.538Z,8.97
2019-05-03T00:13:25.536Z,8.96
2019-05-03T00:14:25.516Z,8.97
2019-05-03T00:15:25.503Z,8.96
2019-05-03T00:16:25.494Z,8.96
2019-05-03T00:17:25.488Z,8.96
2019-05-03T00:18:25.466Z,8.96
2019-05-03T00:19:25.487Z,8.94
2019-05-03T00:20:25.448Z,8.93
2019-05-03T00:21:25.438Z,8.91
2019-05-03T00:22:25.467Z,8.91
2019-05-03T00:23:25.416Z,8.91
2019-05-03T00:24:25.405Z,8.91
2019-05-03T00:25:25.394Z,8.91
2019-05-03T00:26:25.387Z,8.93
2019-05-03T00:27:25.398Z,8.93
2019-05-03T00:28:25.365Z,8.93
2019-05-03T00:29:25.346Z,8.91
2019-05-03T00:30:25.343Z,8.90
2019-05-03T00:31:25.325Z,8.88
2019-05-03T00:32:25.317Z,8.87
2019-05-03T00:33:25.332Z,8.84
2019-05-03T00:34:25.295Z,8.84
2019-05-03T00:35:25.286Z,8.86
2019-05-03T00:36:25.268Z,8.84
2019-05-03T00:37:25.264Z,8.84
2019-05-03T00:38:25.265Z,8.84
2019-05-03T00:39:25.268Z,8.83
2019-05-03T00:40:25.233Z,8.83
2019-05-03T00:41:25.226Z,8.84
2019-05-03T00:42:25.239Z,8.83
2019-05-03T00:43:25.195Z,8.83
2019-05-03T00:44:25.185Z,8.83
2019-05-03T00:45:25.195Z,8.81
2019-05-03T00:46:25.166Z,8.81
2019-05-03T00:47:25.159Z,8.81
2019-05-03T00:48:25.163Z,8.79
2019-05-03T00:49:25.144Z,8.79
2019-05-03T00:50:25.125Z,8.83
2019-05-03T00:51:25.124Z,8.83
2019-05-03T00:52:25.094Z,8.84
2019-05-03T00:53:25.084Z,8.86
2019-05-03T00:54:25.086Z,8.86
2019-05-03T00:55:25.078Z,8.86
2019-05-03T00:56:25.056Z,8.86
2019-05-03T00:57:25.044Z,8.86
2019-05-03T00:58:25.033Z,8.86
2019-05-03T00:59:25.024Z,8.86
2019-05-03T01:00:25.004Z,8.84
2019-05-03T01:01:24.995Z,8.86
2019-05-03T01:02:26.391Z,8.86
2019-05-03T01:03:24.974Z,8.86
2019-05-03T01:04:24.984Z,8.86
2019-05-03T01:05:24.991Z,8.84
2019-05-03T01:06:24.946Z,8.84
2019-05-03T01:07:24.934Z,8.84
2019-05-03T01:08:24.938Z,8.81
2019-05-03T01:09:24.912Z,8.79
2019-05-03T01:10:24.902Z,8.78
2019-05-03T01:11:24.903Z,8.78
2019-05-03T01:12:24.875Z,8.79
2019-05-03T01:13:24.864Z,8.78
2019-05-03T01:14:24.873Z,8.75
2019-05-03T01:15:24.859Z,8.75
2019-05-03T01:16:24.840Z,8.73
2019-05-03T01:17:24.824Z,8.73
2019-05-03T01:18:24.813Z,8.72
2019-05-03T01:19:24.804Z,8.71
2019-05-03T01:20:24.810Z,8.72
2019-05-03T01:21:24.774Z,8.71
2019-05-03T01:22:24.772Z,8.69
2019-05-03T01:23:24.754Z,8.69
2019-05-03T01:24:24.743Z,8.69
2019-05-03T01:25:32.260Z,8.68
2019-05-03T01:26:25.734Z,8.68
2019-05-03T01:27:24.736Z,8.69
2019-05-03T01:28:24.702Z,8.68
2019-05-03T01:29:24.693Z,8.69
2019-05-03T01:30:24.673Z,8.69
2019-05-03T01:31:24.669Z,8.69
2019-05-03T01:32:24.672Z,8.68
2019-05-03T01:33:24.653Z,8.66
2019-05-03T01:34:24.633Z,8.63
2019-05-03T01:35:24.666Z,8.62
2019-05-03T01:36:24.615Z,8.62
2019-05-03T01:37:24.622Z,8.62
2019-05-03T01:38:24.592Z,8.60
2019-05-03T01:39:24.585Z,8.60
2019-05-03T01:40:24.563Z,8.60
2019-05-03T01:41:24.573Z,8.60
2019-05-03T01:42:24.545Z,8.60
2019-05-03T01:43:24.542Z,8.60
2019-05-03T01:44:24.530Z,8.62
2019-05-03T01:45:24.512Z,8.58
2019-05-03T01:46:24.532Z,8.55
2019-05-03T01:47:24.494Z,8.54
2019-05-03T01:48:24.482Z,8.55
2019-05-03T01:49:24.475Z,8.55
2019-05-03T01:50:24.462Z,8.54
2019-05-03T01:51:24.453Z,8.55
2019-05-03T01:52:24.473Z,8.55
2019-05-03T01:53:24.423Z,8.55
2019-05-03T01:54:24.425Z,8.55
2019-05-03T01:55:24.403Z,8.55
2019-05-03T01:56:24.396Z,8.54
2019-05-03T01:57:24.393Z,8.53
2019-05-03T01:58:24.379Z,8.54
2019-05-03T01:59:24.372Z,8.53
2019-05-03T02:00:24.352Z,8.53
2019-05-03T02:01:24.342Z,8.51
2019-05-03T02:02:24.342Z,8.53
2019-05-03T02:03:24.322Z,8.51
2019-05-03T02:04:24.323Z,8.51
2019-05-03T02:05:24.302Z,8.51
2019-05-03T02:06:24.292Z,8.53
2019-05-03T02:07:24.282Z,8.53
2019-05-03T02:08:24.293Z,8.53
2019-05-03T02:09:24.259Z,8.53
2019-05-03T02:10:24.242Z,8.51
2019-05-03T02:11:24.222Z,8.51
2019-05-03T02:12:24.221Z,8.51
2019-05-03T02:13:24.211Z,8.50
2019-05-03T02:14:24.201Z,8.48
2019-05-03T02:15:24.182Z,8.48
2019-05-03T02:16:24.175Z,8.48
2019-05-03T02:17:24.160Z,8.47
2019-05-03T02:18:24.162Z,8.45
2019-05-03T02:19:24.133Z,8.47
2019-05-03T02:20:24.161Z,8.47
2019-05-03T02:21:24.121Z,8.42
2019-05-03T02:22:24.102Z,8.45
2019-05-03T02:23:24.102Z,8.44
2019-05-03T02:24:24.089Z,8.42
2019-05-03T02:25:24.079Z,8.40
2019-05-03T02:26:24.071Z,8.39
2019-05-03T02:27:24.065Z,8.39
2019-05-03T02:28:24.042Z,8.37
2019-05-03T02:29:24.030Z,8.36
2019-05-03T02:30:24.986Z,8.37
2019-05-03T02:31:24.014Z,8.39
2019-05-03T02:32:24.009Z,8.37
2019-05-03T02:33:23.984Z,8.37
2019-05-03T02:34:24.134Z,8.35
2019-05-03T02:35:23.991Z,8.36
2019-05-03T02:36:23.976Z,8.36
2019-05-03T02:37:23.952Z,8.37
2019-05-03T02:38:23.939Z,8.36
2019-05-03T02:39:23.921Z,8.37
2019-05-03T02:40:24.706Z,8.36
2019-05-03T02:41:23.941Z,8.33
2019-05-03T02:42:26.319Z,8.35
2019-05-03T02:43:26.071Z,8.35
2019-05-03T02:44:26.563Z,8.36
2019-05-03T02:45:25.935Z,8.37
2019-05-03T02:46:25.371Z,8.39
2019-05-03T02:47:26.332Z,8.42
2019-05-03T02:48:25.553Z,8.42
2019-05-03T02:49:25.781Z,8.39
2019-05-03T02:50:26.087Z,8.39
2019-05-03T02:51:25.963Z,8.39
2019-05-03T02:52:25.580Z,8.39
2019-05-03T02:53:25.899Z,8.40
2019-05-03T02:54:26.513Z,8.40
2019-05-03T02:55:26.089Z,8.40
2019-05-03T02:56:25.990Z,8.40
2019-05-03T02:57:25.887Z,8.40
2019-05-03T02:58:25.299Z,8.39
2019-05-03T02:59:26.171Z,8.37
2019-05-03T03:00:25.586Z,8.36
2019-05-03T03:01:26.078Z,8.35
2019-05-03T03:02:26.323Z,8.35
2019-05-03T03:03:25.463Z,8.35
2019-05-03T03:04:25.899Z,8.35
2019-05-03T03:05:25.303Z,8.35
2019-05-03T03:06:26.558Z,8.33
2019-05-03T03:07:25.821Z,8.33
2019-05-03T03:08:25.206Z,8.29
2019-05-03T03:09:25.962Z,8.29
2019-05-03T03:10:26.306Z,8.29
2019-05-03T03:11:26.090Z,8.26
2019-05-03T03:12:25.729Z,8.29
2019-05-03T03:13:25.322Z,8.28
2019-05-03T03:14:25.636Z,8.28
2019-05-03T03:15:25.601Z,8.26
2019-05-03T03:16:25.177Z,8.28
2019-05-03T03:17:25.471Z,8.26
2019-05-03T03:18:25.535Z,8.26
2019-05-03T03:19:25.977Z,8.21
2019-05-03T03:20:25.333Z,8.21
2019-05-03T03:21:25.855Z,8.21
2019-05-03T03:22:25.952Z,8.20
2019-05-03T03:23:26.117Z,8.20
2019-05-03T03:24:25.887Z,8.20
2019-05-03T03:25:25.832Z,8.20
2019-05-03T03:26:34.426Z,8.20
2019-05-03T03:27:25.676Z,8.21
2019-05-03T03:28:25.267Z,8.21
2019-05-03T03:29:25.298Z,8.22
2019-05-03T03:30:28.265Z,8.20
2019-05-03T03:31:28.292Z,8.21
2019-05-03T03:32:28.379Z,8.21
2019-05-03T03:33:28.067Z,8.21
2019-05-03T03:34:27.553Z,8.22
2019-05-03T03:35:29.143Z,8.21
2019-05-03T03:36:50.326Z,8.18
2019-05-03T03:37:25.992Z,8.18
2019-05-03T03:38:25.890Z,8.18
2019-05-03T03:39:25.705Z,8.15
2019-05-03T03:40:25.450Z,8.14
2019-05-03T03:41:24.963Z,8.15
2019-05-03T03:42:25.131Z,8.11
2019-05-03T03:43:25.747Z,8.12
2019-05-03T03:44:25.379Z,8.10
2019-05-03T03:45:25.389Z,8.10
2019-05-03T03:46:25.173Z,8.08
2019-05-03T03:47:23.168Z,8.10
2019-05-03T03:48:23.167Z,8.11
2019-05-03T03:49:23.225Z,8.11
2019-05-03T03:50:25.721Z,8.12
2019-05-03T03:51:23.118Z,8.14
2019-05-03T03:52:25.427Z,8.12
2019-05-03T03:53:23.100Z,8.12
2019-05-03T03:54:25.790Z,8.12
2019-05-03T03:55:26.163Z,8.12
2019-05-03T03:56:25.521Z,8.12
2019-05-03T03:57:25.273Z,8.12
2019-05-03T03:58:23.262Z,8.14
2019-05-03T03:59:26.174Z,8.15
2019-05-03T04:00:25.526Z,8.17
2019-05-03T04:01:23.010Z,8.18
2019-05-03T04:02:26.183Z,8.17
2019-05-03T04:03:25.689Z,8.20
2019-05-03T04:04:25.733Z,8.20
2019-05-03T04:05:25.448Z,8.21
2019-05-03T04:06:22.957Z,8.20
2019-05-03T04:07:22.937Z,8.15
2019-05-03T04:08:25.047Z,8.18
2019-05-03T04:09:25.303Z,8.15
2019-05-03T04:10:22.934Z,8.12
2019-05-03T04:11:22.887Z,8.12
2019-05-03T04:12:26.138Z,8.12
2019-05-03T04:13:25.322Z,8.11
2019-05-03T04:14:25.267Z,8.10
2019-05-03T04:15:25.807Z,8.07
2019-05-03T04:16:25.734Z,8.07
2019-05-03T04:17:25.743Z,8.02
2019-05-03T04:18:25.431Z,8.03
2019-05-03T04:19:24.953Z,8.03
2019-05-03T04:20:25.428Z,8.02
2019-05-03T04:21:25.258Z,8.02
2019-05-03T04:22:25.327Z,8.02
2019-05-03T04:23:22.757Z,8.00
2019-05-03T04:24:22.748Z,7.99
2019-05-03T04:25:22.748Z,7.97
2019-05-03T04:26:27.516Z,8.00
2019-05-03T04:27:27.207Z,8.00
2019-05-03T04:28:25.375Z,8.03
2019-05-03T04:29:25.271Z,8.02
2019-05-03T04:30:25.414Z,8.03
2019-05-03T04:31:22.676Z,8.03
2019-05-03T04:32:25.632Z,8.02
2019-05-03T04:33:26.584Z,8.00
2019-05-03T04:34:22.674Z,7.99
2019-05-03T04:35:22.642Z,7.97
2019-05-03T04:36:22.616Z,7.97
2019-05-03T04:37:22.607Z,7.99
2019-05-03T04:38:25.293Z,8.00
2019-05-03T04:39:25.390Z,7.97
2019-05-03T04:40:22.596Z,8.00
2019-05-03T04:41:22.573Z,8.00
2019-05-03T04:42:25.128Z,8.00
2019-05-03T04:43:22.548Z,8.02
2019-05-03T04:44:22.558Z,8.03
2019-05-03T04:45:22.517Z,8.03
2019-05-03T04:46:22.696Z,8.07
2019-05-03T04:47:22.526Z,8.11
2019-05-03T04:48:25.221Z,8.15
2019-05-03T04:49:22.480Z,8.15
2019-05-03T04:50:25.266Z,8.15
2019-05-03T04:51:22.504Z,8.17
2019-05-03T04:52:25.517Z,8.18
2019-05-03T04:53:22.444Z,8.21
2019-05-03T04:54:25.025Z,8.26
2019-05-03T04:55:22.518Z,8.30
2019-05-03T04:56:22.413Z,8.32
2019-05-03T04:57:39.287Z,8.33
2019-05-03T04:58:25.817Z,8.36
2019-05-03T04:59:25.272Z,8.39
2019-05-03T05:00:25.367Z,8.40
2019-05-03T05:01:22.328Z,8.42
2019-05-03T05:02:22.310Z,8.44
2019-05-03T05:03:22.302Z,8.47
2019-05-03T05:04:22.310Z,8.48
2019-05-03T05:05:25.731Z,8.53
2019-05-03T05:06:22.479Z,8.55
2019-05-03T05:07:22.250Z,8.51
2019-05-03T05:08:22.259Z,8.48
2019-05-03T05:09:22.254Z,8.47
2019-05-03T05:10:22.242Z,8.45
2019-05-03T05:11:22.210Z,8.47
2019-05-03T05:12:24.962Z,8.53
2019-05-03T05:13:24.819Z,8.53
2019-05-03T05:14:22.191Z,8.54
2019-05-03T05:15:22.179Z,8.57
2019-05-03T05:16:22.174Z,8.62
2019-05-03T05:17:22.151Z,8.66
2019-05-03T05:18:22.140Z,8.69
2019-05-03T05:19:22.974Z,8.75
2019-05-03T05:20:22.157Z,8.81
2019-05-03T05:21:22.111Z,8.84
2019-05-03T05:22:22.104Z,8.87
2019-05-03T05:23:22.089Z,8.90
2019-05-03T05:24:22.091Z,8.91
2019-05-03T05:25:22.078Z,8.81
2019-05-03T05:26:22.060Z,8.83
2019-05-03T05:27:22.039Z,8.83
2019-05-03T05:28:22.028Z,8.86
2019-05-03T05:29:22.021Z,8.87
2019-05-03T05:30:22.025Z,8.91
2019-05-03T05:31:21.993Z,8.94
2019-05-03T05:32:21.978Z,9.02
2019-05-03T05:33:22.001Z,9.02
2019-05-03T05:34:21.970Z,9.04
2019-05-03T05:35:21.968Z,9.02
2019-05-03T05:36:21.956Z,9.02
2019-05-03T05:37:21.928Z,9.02
2019-05-03T05:38:21.931Z,9.05
2019-05-03T05:39:21.912Z,8.97
2019-05-03T05:40:21.926Z,8.93
2019-05-03T05:41:21.892Z,8.94
2019-05-03T05:42:21.894Z,8.91
2019-05-03T05:43:21.859Z,8.93
2019-05-03T05:44:21.881Z,8.93
2019-05-03T05:45:21.844Z,8.87
2019-05-03T05:46:21.857Z,8.78
2019-05-03T05:47:21.856Z,8.73
2019-05-03T05:48:21.810Z,8.65
2019-05-03T05:49:21.811Z,8.54
2019-05-03T05:50:21.789Z,8.57
2019-05-03T05:51:21.824Z,8.55
2019-05-03T05:52:24.639Z,8.62
2019-05-03T05:53:21.867Z,8.66
2019-05-03T05:54:21.738Z,8.63
2019-05-03T05:55:21.989Z,8.60
2019-05-03T05:56:21.920Z,8.57
2019-05-03T05:57:22.609Z,8.58
2019-05-03T05:58:21.705Z,8.58
2019-05-03T05:59:21.739Z,8.60
2019-05-03T06:00:21.692Z,8.58
2019-05-03T06:01:21.678Z,8.63
2019-05-03T06:02:21.875Z,8.72
2019-05-03T06:03:21.649Z,8.75
2019-05-03T06:04:21.666Z,8.83
2019-05-03T06:05:21.636Z,8.83
2019-05-03T06:06:21.637Z,8.86
2019-05-03T06:07:21.596Z,8.91
2019-05-03T06:08:21.595Z,9.01
2019-05-03T06:09:21.577Z,9.10
2019-05-03T06:10:21.586Z,9.15
2019-05-03T06:11:21.970Z,9.25
2019-05-03T06:12:21.553Z,9.34
2019-05-03T06:13:21.579Z,9.42
2019-05-03T06:14:21.531Z,9.39
2019-05-03T06:15:24.362Z,9.42
2019-05-03T06:16:21.495Z,9.43
2019-05-03T06:17:21.676Z,9.46
2019-05-03T06:18:21.486Z,9.39
2019-05-03T06:19:21.507Z,9.35
2019-05-03T06:20:21.461Z,9.32
2019-05-03T06:21:21.447Z,9.34
2019-05-03T06:22:21.474Z,9.35
2019-05-03T06:23:21.646Z,9.35
2019-05-03T06:24:21.409Z,9.31
2019-05-03T06:25:21.386Z,9.27
2019-05-03T06:26:21.386Z,9.23
2019-05-03T06:27:21.385Z,9.25
2019-05-03T06:28:21.428Z,9.25
2019-05-03T06:29:21.382Z,9.15
2019-05-03T06:30:21.355Z,9.15
2019-05-03T06:31:22.803Z,9.20
2019-05-03T06:32:21.345Z,9.23
2019-05-03T06:33:21.429Z,9.25
2019-05-03T06:34:21.298Z,9.25
2019-05-03T06:35:21.682Z,9.30
2019-05-03T06:36:21.295Z,9.27
2019-05-03T06:37:21.275Z,9.28
2019-05-03T06:38:21.280Z,9.25
2019-05-03T06:39:21.270Z,9.32
2019-05-03T06:40:21.249Z,9.34
2019-05-03T06:41:21.436Z,9.35
2019-05-03T06:42:22.858Z,9.43
2019-05-03T06:43:21.194Z,9.46
2019-05-03T06:44:27.009Z,9.46
2019-05-03T06:45:22.179Z,9.45
2019-05-03T06:46:25.360Z,9.53
2019-05-03T06:47:22.173Z,9.57
2019-05-03T06:48:22.310Z,9.57
2019-05-03T06:49:22.159Z,9.64
2019-05-03T06:50:27.267Z,9.67
2019-05-03T06:51:22.117Z,9.76
2019-05-03T06:52:27.570Z,9.68
2019-05-03T06:53:22.119Z,9.61
2019-05-03T06:54:28.271Z,9.64
2019-05-03T06:55:22.077Z,9.64
2019-05-03T06:56:24.994Z,9.67
2019-05-03T06:57:22.053Z,9.73
2019-05-03T06:58:32.851Z,9.79
2019-05-03T06:59:22.037Z,9.71
2019-05-03T07:00:21.023Z,9.76
2019-05-03T07:01:21.037Z,9.82
2019-05-03T07:02:20.998Z,9.93
2019-05-03T07:03:20.986Z,9.89
2019-05-03T07:04:20.986Z,9.96
2019-05-03T07:05:20.990Z,9.97
2019-05-03T07:06:33.564Z,9.91
2019-05-03T07:07:21.933Z,9.94
2019-05-03T07:08:20.927Z,10.04
2019-05-03T07:09:20.941Z,10.01
2019-05-03T07:10:20.959Z,9.99
2019-05-03T07:11:20.913Z,10.06
2019-05-03T07:12:20.893Z,10.15
2019-05-03T07:13:20.878Z,10.19
2019-05-03T07:14:20.905Z,10.09
2019-05-03T07:15:20.888Z,9.94
2019-05-03T07:16:20.833Z,10.04
2019-05-03T07:17:20.833Z,10.15
2019-05-03T07:18:20.823Z,10.21
2019-05-03T07:19:20.825Z,10.33
2019-05-03T07:20:20.804Z,10.42
2019-05-03T07:21:20.782Z,10.56
2019-05-03T07:22:20.772Z,10.70
2019-05-03T07:23:20.773Z,10.77
2019-05-03T07:24:20.784Z,10.74
2019-05-03T07:25:20.785Z,10.52
2019-05-03T07:26:20.733Z,10.55
2019-05-03T07:27:20.731Z,10.60
2019-05-03T07:28:20.721Z,10.44
2019-05-03T07:29:20.705Z,10.44
2019-05-03T07:30:20.705Z,10.39
2019-05-03T07:31:20.696Z,10.44
2019-05-03T07:32:20.672Z,10.53
2019-05-03T07:33:20.664Z,10.59
2019-05-03T07:34:20.685Z,10.68
2019-05-03T07:35:20.628Z,10.68
2019-05-03T07:36:20.636Z,10.74
2019-05-03T07:37:20.612Z,10.78
2019-05-03T07:38:20.656Z,10.73
2019-05-03T07:39:20.604Z,10.62
2019-05-03T07:40:20.609Z,10.53
2019-05-03T07:41:20.620Z,10.52
2019-05-03T07:42:20.570Z,10.51
2019-05-03T07:43:20.541Z,10.51
2019-05-03T07:44:20.562Z,10.47
2019-05-03T07:45:20.523Z,10.47
2019-05-03T07:46:20.545Z,10.55
2019-05-03T07:47:20.522Z,10.55
2019-05-03T07:48:20.493Z,10.56
2019-05-03T07:49:20.475Z,10.59
2019-05-03T07:50:20.477Z,10.70
2019-05-03T07:51:20.480Z,10.71
2019-05-03T07:52:20.461Z,10.77
2019-05-03T07:53:20.442Z,10.88
2019-05-03T07:54:20.432Z,10.92
2019-05-03T07:55:20.411Z,10.96
2019-05-03T07:56:20.442Z,11.06
2019-05-03T07:57:20.399Z,11.07
2019-05-03T07:58:20.389Z,10.95
2019-05-03T07:59:20.384Z,10.91
2019-05-03T08:00:20.358Z,10.94
2019-05-03T08:01:20.368Z,10.95
2019-05-03T08:02:20.374Z,11.07
2019-05-03T08:03:20.340Z,11.20
2019-05-03T08:04:20.339Z,11.25
2019-05-03T08:05:20.302Z,11.29
2019-05-03T08:06:20.287Z,11.29
2019-05-03T08:07:22.881Z,11.25
2019-05-03T08:08:20.280Z,11.16
2019-05-03T08:09:20.265Z,11.24
2019-05-03T08:10:20.251Z,11.27
2019-05-03T08:11:20.239Z,11.24
2019-05-03T08:12:20.231Z,11.25
2019-05-03T08:13:20.222Z,11.28
2019-05-03T08:14:20.200Z,11.32
2019-05-03T08:15:20.200Z,11.29
2019-05-03T08:16:20.190Z,11.21
2019-05-03T08:17:20.169Z,11.17
2019-05-03T08:18:20.170Z,11.17
2019-05-03T08:19:23.335Z,11.20
2019-05-03T08:20:21.141Z,11.24
2019-05-03T08:21:20.148Z,11.29
2019-05-03T08:22:20.124Z,11.32
2019-05-03T08:23:27.322Z,11.29
2019-05-03T08:24:21.088Z,11.29
2019-05-03T08:25:20.094Z,11.38
2019-05-03T08:26:20.082Z,11.43
2019-05-03T08:27:20.083Z,11.47
2019-05-03T08:28:20.063Z,11.52
2019-05-03T08:29:20.059Z,11.62
2019-05-03T08:30:20.021Z,11.65
2019-05-03T08:31:20.033Z,11.74
2019-05-03T08:32:20.014Z,11.77
2019-05-03T08:33:20.010Z,11.72
2019-05-03T08:34:20.002Z,11.57
2019-05-03T08:35:19.968Z,11.54
2019-05-03T08:36:19.969Z,11.49
2019-05-03T08:37:19.968Z,11.35
2019-05-03T08:38:19.927Z,11.31
2019-05-03T08:39:19.920Z,11.24
2019-05-03T08:40:19.933Z,11.21
2019-05-03T08:41:19.910Z,11.19
2019-05-03T08:42:19.921Z,11.24
2019-05-03T08:43:19.888Z,11.35
2019-05-03T08:44:19.878Z,11.46
2019-05-03T08:45:19.912Z,11.57
2019-05-03T08:46:19.868Z,11.75
2019-05-03T08:47:19.858Z,11.97
2019-05-03T08:48:19.832Z,11.82
2019-05-03T08:49:19.817Z,11.83
2019-05-03T08:50:21.587Z,11.96
2019-05-03T08:51:19.816Z,12.19
2019-05-03T08:52:19.787Z,12.31
2019-05-03T08:53:19.785Z,12.29
2019-05-03T08:54:19.776Z,12.31
2019-05-03T08:55:19.768Z,12.30
2019-05-03T08:56:19.757Z,12.33
2019-05-03T08:57:19.726Z,12.23
2019-05-03T08:58:19.721Z,12.23
2019-05-03T08:59:29.120Z,12.19
2019-05-03T09:00:20.728Z,12.15
2019-05-03T09:01:19.701Z,12.12
2019-05-03T09:02:19.676Z,12.09
2019-05-03T09:03:19.688Z,11.94
2019-05-03T09:04:19.657Z,11.85
2019-05-03T09:05:19.651Z,11.72
2019-05-03T09:06:19.647Z,11.64
2019-05-03T09:07:19.688Z,11.68
2019-05-03T09:08:19.619Z,11.70
2019-05-03T09:09:19.630Z,11.70
2019-05-03T09:10:19.600Z,11.86
2019-05-03T09:11:30.597Z,11.90
2019-05-03T09:12:20.575Z,11.90
2019-05-03T09:13:19.556Z,11.87
2019-05-03T09:14:19.549Z,12.02
2019-05-03T09:15:21.692Z,12.27
2019-05-03T09:16:19.644Z,12.48
2019-05-03T09:17:19.510Z,12.52
2019-05-03T09:18:19.521Z,12.74
2019-05-03T09:19:19.498Z,12.82
2019-05-03T09:20:19.507Z,12.87
2019-05-03T09:21:19.466Z,12.84
2019-05-03T09:22:19.457Z,12.67
2019-05-03T09:23:19.457Z,12.56
2019-05-03T09:24:19.436Z,12.39
2019-05-03T09:25:19.431Z,12.39
2019-05-03T09:26:19.431Z,12.30
2019-05-03T09:27:19.406Z,12.24
2019-05-03T09:28:19.408Z,12.19
2019-05-03T09:29:19.385Z,12.04
2019-05-03T09:30:19.366Z,11.94
2019-05-03T09:31:19.384Z,11.83
2019-05-03T09:32:19.386Z,11.86
2019-05-03T09:33:19.355Z,11.94
2019-05-03T09:34:19.363Z,12.08
2019-05-03T09:35:29.742Z,12.08
2019-05-03T09:36:20.305Z,12.09
2019-05-03T09:37:19.328Z,12.19
2019-05-03T09:38:19.302Z,12.29
2019-05-03T09:39:19.265Z,12.42
2019-05-03T09:40:19.260Z,12.49
2019-05-03T09:41:19.267Z,12.60
2019-05-03T09:42:19.246Z,12.70
2019-05-03T09:43:19.225Z,12.81
2019-05-03T09:44:19.215Z,12.78
2019-05-03T09:45:19.212Z,12.82
2019-05-03T09:46:19.206Z,12.82
2019-05-03T09:47:19.201Z,12.82
2019-05-03T09:48:19.172Z,12.85
2019-05-03T09:49:19.155Z,12.88
2019-05-03T09:50:19.188Z,12.89
2019-05-03T09:51:19.160Z,12.85
2019-05-03T09:52:19.118Z,12.54
2019-05-03T09:53:19.104Z,12.66
2019-05-03T09:54:19.107Z,12.63
2019-05-03T09:55:19.135Z,12.57
2019-05-03T09:56:19.106Z,12.57
2019-05-03T09:57:19.083Z,12.46
2019-05-03T09:58:19.069Z,12.41
2019-05-03T09:59:19.064Z,12.39
2019-05-03T10:00:19.039Z,12.39
2019-05-03T10:01:19.059Z,12.31
2019-05-03T10:02:19.018Z,12.30
2019-05-03T10:03:19.013Z,12.39
2019-05-03T10:04:19.034Z,12.41
2019-05-03T10:05:18.994Z,12.56
2019-05-03T10:06:18.981Z,12.64
2019-05-03T10:07:18.964Z,12.78
2019-05-03T10:08:18.968Z,12.99
2019-05-03T10:09:18.966Z,13.11
2019-05-03T10:10:18.933Z,13.21
2019-05-03T10:11:18.917Z,13.25
2019-05-03T10:12:18.916Z,13.32
2019-05-03T10:13:23.537Z,13.46
2019-05-03T10:14:19.878Z,13.58
2019-05-03T10:15:18.895Z,13.54
2019-05-03T10:16:18.854Z,13.49
2019-05-03T10:17:18.911Z,13.38
2019-05-03T10:18:18.853Z,13.33
2019-05-03T10:19:18.826Z,13.22
2019-05-03T10:20:18.825Z,13.14
2019-05-03T10:21:18.813Z,13.07
2019-05-03T10:22:18.891Z,12.93
2019-05-03T10:23:18.795Z,12.82
2019-05-03T10:24:18.796Z,12.75
2019-05-03T10:25:18.768Z,12.74
2019-05-03T10:26:18.791Z,12.57
2019-05-03T10:27:18.764Z,12.48
2019-05-03T10:28:18.764Z,12.51
2019-05-03T10:29:18.724Z,12.48
2019-05-03T10:30:18.704Z,12.52
2019-05-03T10:31:18.762Z,12.59
2019-05-03T10:32:18.715Z,12.64
2019-05-03T10:33:18.703Z,12.62
2019-05-03T10:34:18.670Z,12.59
2019-05-03T10:35:19.174Z,12.59
2019-05-03T10:36:18.667Z,12.66
2019-05-03T10:37:18.652Z,12.62
2019-05-03T10:38:18.629Z,12.49
2019-05-03T10:39:18.632Z,12.48
2019-05-03T10:40:18.623Z,12.51
2019-05-03T10:41:18.595Z,12.54
2019-05-03T10:42:18.563Z,12.56
2019-05-03T10:43:18.583Z,12.54
2019-05-03T10:44:18.593Z,12.49
2019-05-03T10:45:18.549Z,12.51
2019-05-03T10:46:18.541Z,12.57
2019-05-03T10:47:18.536Z,12.63
2019-05-03T10:48:18.513Z,12.81
2019-05-03T10:49:18.496Z,12.99
2019-05-03T10:50:18.511Z,13.11
2019-05-03T10:51:18.476Z,13.24
2019-05-03T10:52:18.530Z,13.32
2019-05-03T10:53:18.454Z,13.40
2019-05-03T10:54:18.497Z,13.51
2019-05-03T10:55:18.484Z,13.52
2019-05-03T10:56:23.118Z,13.49
2019-05-03T10:57:19.404Z,13.32
2019-05-03T10:58:18.468Z,13.21
2019-05-03T10:59:18.395Z,13.04
2019-05-03T11:00:42.462Z,12.82
2019-05-03T11:01:19.471Z,12.67
2019-05-03T11:02:18.383Z,12.56
2019-05-03T11:03:18.349Z,12.46
2019-05-03T11:04:18.388Z,12.39
2019-05-03T11:05:18.352Z,12.56
2019-05-03T11:06:18.311Z,12.88
2019-05-03T11:07:18.327Z,13.00
2019-05-03T11:08:18.307Z,13.11
2019-05-03T11:09:18.297Z,13.36
2019-05-03T11:10:18.345Z,13.59
2019-05-03T11:11:18.273Z,13.71
2019-05-03T11:12:18.242Z,13.81
2019-05-03T11:13:18.255Z,13.69
2019-05-03T11:14:18.218Z,13.70
2019-05-03T11:15:18.212Z,13.77
2019-05-03T11:16:18.231Z,13.80
2019-05-03T11:17:18.191Z,14.09
2019-05-03T11:18:18.202Z,14.14
2019-05-03T11:19:18.170Z,14.10
2019-05-03T11:20:28.131Z,14.04
2019-05-03T11:21:28.210Z,13.96
2019-05-03T11:22:19.146Z,13.74
2019-05-03T11:23:18.194Z,13.77
2019-05-03T11:24:18.142Z,13.74
2019-05-03T11:25:18.110Z,13.58
2019-05-03T11:26:18.095Z,13.63
2019-05-03T11:27:18.091Z,13.52
2019-05-03T11:28:18.087Z,13.46
2019-05-03T11:29:18.059Z,13.46
2019-05-03T11:30:18.083Z,13.51
2019-05-03T11:31:18.063Z,13.65
2019-05-03T11:32:18.022Z,13.52
2019-05-03T11:33:18.030Z,13.38
2019-05-03T11:34:18.784Z,13.30
2019-05-03T11:35:17.999Z,13.29
2019-05-03T11:36:18.205Z,13.33
2019-05-03T11:37:17.974Z,13.43
2019-05-03T11:38:18.277Z,13.41
2019-05-03T11:39:17.976Z,13.38
2019-05-03T11:40:18.259Z,13.49
2019-05-03T11:41:29.473Z,13.55
2019-05-03T11:42:19.692Z,13.63
2019-05-03T11:43:17.910Z,13.70
2019-05-03T11:44:17.937Z,13.77
2019-05-03T11:45:17.891Z,13.73
2019-05-03T11:46:17.888Z,13.65
2019-05-03T11:47:17.887Z,13.61
2019-05-03T11:48:18.327Z,13.47
2019-05-03T11:49:17.853Z,13.49
2019-05-03T11:50:18.483Z,13.41
2019-05-03T11:51:17.831Z,13.41
2019-05-03T11:52:17.827Z,13.38
2019-05-03T11:53:32.666Z,13.40
2019-05-03T11:54:17.891Z,13.40
2019-05-03T11:55:17.790Z,13.27
2019-05-03T11:56:17.810Z,13.29
2019-05-03T11:57:17.760Z,13.36
2019-05-03T11:58:17.769Z,13.46
2019-05-03T11:59:17.739Z,13.59
2019-05-03T12:00:17.722Z,13.71
2019-05-03T12:01:20.096Z,13.79
2019-05-03T12:02:17.741Z,13.87
2019-05-03T12:03:17.701Z,13.91
2019-05-03T12:04:17.696Z,13.96
2019-05-03T12:05:17.671Z,14.02
2019-05-03T12:06:17.651Z,14.02
2019-05-03T12:07:18.535Z,13.99
2019-05-03T12:08:17.668Z,14.01
2019-05-03T12:09:17.621Z,14.16
2019-05-03T12:10:33.277Z,14.24
2019-05-03T12:11:18.621Z,14.34
2019-05-03T12:12:17.596Z,14.44
2019-05-03T12:13:17.580Z,14.16
2019-05-03T12:14:17.581Z,13.92
2019-05-03T12:15:17.562Z,13.83
2019-05-03T12:16:26.302Z,13.74
2019-05-03T12:17:25.813Z,13.73
2019-05-03T12:18:19.089Z,13.71
2019-05-03T12:19:21.416Z,13.70
2019-05-03T12:20:20.080Z,13.74
2019-05-03T12:21:19.016Z,13.81
2019-05-03T12:22:17.954Z,13.95
2019-05-03T12:23:17.989Z,14.09
2019-05-03T12:24:17.946Z,14.09
2019-05-03T12:25:18.052Z,14.12
2019-05-03T12:26:18.181Z,14.20
2019-05-03T12:27:17.425Z,14.20
2019-05-03T12:28:17.413Z,14.20
2019-05-03T12:29:17.400Z,14.21
2019-05-03T12:30:17.415Z,14.21
2019-05-03T12:31:29.639Z,14.12
2019-05-03T12:32:18.372Z,14.16
2019-05-03T12:33:17.417Z,14.28
2019-05-03T12:34:17.375Z,14.35
2019-05-03T12:35:17.357Z,14.38
2019-05-03T12:36:17.348Z,14.32
2019-05-03T12:37:17.323Z,14.21
2019-05-03T12:38:17.300Z,14.06
2019-05-03T12:39:26.366Z,13.99
2019-05-03T12:40:18.391Z,14.17
2019-05-03T12:41:17.272Z,14.27
2019-05-03T12:42:18.794Z,14.42
2019-05-03T12:43:17.274Z,14.54
2019-05-03T12:44:17.271Z,14.62
2019-05-03T12:45:17.266Z,14.65
2019-05-03T12:46:17.219Z,14.69
2019-05-03T12:47:17.215Z,14.83
2019-05-03T12:48:17.331Z,15.01
2019-05-03T12:49:17.200Z,15.21
2019-05-03T12:50:17.209Z,15.24
2019-05-03T12:51:17.159Z,15.15
2019-05-03T12:52:17.698Z,15.19
2019-05-03T12:53:17.154Z,15.26
2019-05-03T12:54:17.131Z,15.17
2019-05-03T12:55:17.122Z,15.11
2019-05-03T12:56:23.391Z,14.84
2019-05-03T12:57:18.090Z,14.52
2019-05-03T12:58:17.101Z,14.25
2019-05-03T12:59:17.088Z,14.06
2019-05-03T13:00:17.063Z,14.01
2019-05-03T13:01:17.043Z,14.04
2019-05-03T13:02:17.031Z,13.96
2019-05-03T13:03:17.030Z,14.02
2019-05-03T13:04:17.029Z,14.12
2019-05-03T13:05:17.051Z,14.14
2019-05-03T13:06:17.329Z,14.24